createdAt,value
2022-12-24T00:01:32.273Z,41.00
2022-12-24T00:04:00.327Z,41.00
2022-12-24T00:06:28.406Z,41.30
2022-12-24T00:08:56.499Z,41.30
2022-12-24T00:11:24.517Z,41.10
2022-12-24T00:13:53.891Z,41.00
2022-12-24T00:16:22.094Z,41.30
2022-12-24T00:18:50.119Z,41.20
2022-12-24T00:21:18.616Z,41.60
2022-12-24T00:23:46.762Z,41.40
2022-12-24T00:26:15.608Z,41.00
2022-12-24T00:28:43.759Z,41.00
2022-12-24T00:31:16.871Z,41.20
2022-12-24T00:33:46.954Z,41.30
2022-12-24T00:36:15.457Z,41.20
2022-12-24T00:38:44.254Z,41.30
2022-12-24T00:41:25.714Z,40.90
2022-12-24T00:43:54.376Z,41.40
2022-12-24T00:46:24.710Z,40.90
2022-12-24T00:48:53.277Z,41.70
2022-12-24T00:51:21.973Z,40.70
2022-12-24T00:53:50.397Z,40.80
2022-12-24T00:56:18.629Z,41.30
2022-12-24T00:58:47.061Z,41.40
2022-12-24T01:01:15.281Z,41.10
2022-12-24T01:03:44.933Z,41.00
2022-12-24T01:06:15.220Z,41.60
2022-12-24T01:08:44.042Z,41.60
2022-12-24T01:11:13.415Z,41.20
2022-12-24T01:13:41.422Z,41.60
2022-12-24T01:16:17.475Z,41.30
2022-12-24T01:18:47.497Z,41.90
2022-12-24T01:21:16.677Z,41.10
2022-12-24T01:23:45.470Z,41.50
2022-12-24T01:26:13.583Z,41.50
2022-12-24T01:28:42.056Z,41.50
2022-12-24T01:31:15.958Z,41.50
2022-12-24T01:33:47.769Z,41.60
2022-12-24T01:36:16.176Z,41.00
2022-12-24T01:38:44.227Z,41.00
2022-12-24T01:41:35.789Z,41.10
2022-12-24T01:44:23.036Z,41.40
2022-12-24T01:46:53.478Z,41.50
2022-12-24T01:49:23.413Z,41.40
2022-12-24T01:51:56.032Z,41.40
2022-12-24T01:54:29.631Z,41.30
2022-12-24T01:57:02.435Z,40.70
2022-12-24T01:59:31.293Z,41.10
2022-12-24T02:01:59.629Z,40.80
2022-12-24T02:04:35.673Z,41.20
2022-12-24T02:07:03.946Z,41.30
2022-12-24T02:09:33.380Z,41.20
2022-12-24T02:12:02.375Z,40.80
2022-12-24T02:14:32.282Z,41.20
2022-12-24T02:17:09.225Z,42.00
2022-12-24T02:20:32.526Z,41.00
2022-12-24T02:23:19.145Z,41.40
2022-12-24T02:26:09.517Z,41.00
2022-12-24T02:28:57.982Z,41.00
2022-12-24T02:31:36.691Z,41.00
2022-12-24T02:34:12.420Z,41.00
2022-12-24T02:36:45.824Z,40.80
2022-12-24T02:39:19.047Z,40.90
2022-12-24T02:42:08.295Z,41.30
2022-12-24T02:44:43.544Z,41.10
2022-12-24T02:47:15.594Z,40.90
2022-12-24T02:49:46.201Z,41.10
2022-12-24T02:52:30.829Z,41.30
2022-12-24T02:55:05.581Z,41.00
2022-12-24T02:57:50.851Z,40.90
2022-12-24T03:00:22.310Z,41.10
2022-12-24T03:03:11.231Z,40.70
2022-12-24T03:05:47.645Z,40.80
2022-12-24T03:08:25.029Z,40.50
2022-12-24T03:10:58.957Z,40.80
2022-12-24T03:13:29.222Z,40.00
2022-12-24T03:15:57.413Z,40.70
2022-12-24T03:18:29.799Z,40.90
2022-12-24T03:21:05.444Z,40.70
2022-12-24T03:23:34.575Z,40.60
2022-12-24T03:26:07.471Z,40.70
2022-12-24T03:28:36.535Z,40.40
2022-12-24T03:31:07.292Z,40.70
2022-12-24T03:33:37.339Z,40.20
2022-12-24T03:36:07.579Z,40.80
2022-12-24T03:38:36.005Z,40.90
2022-12-24T03:41:04.756Z,40.80
2022-12-24T03:43:32.996Z,40.80
2022-12-24T03:46:07.697Z,40.60
2022-12-24T03:48:37.619Z,40.70
2022-12-24T03:51:06.276Z,40.40
2022-12-24T03:53:34.355Z,40.60
2022-12-24T03:56:02.359Z,40.40
2022-12-24T03:58:30.375Z,39.70
2022-12-24T04:00:58.402Z,40.00
2022-12-24T04:03:26.650Z,40.80
2022-12-24T04:06:04.297Z,40.50
2022-12-24T04:08:32.378Z,40.40
2022-12-24T04:11:04.751Z,39.80
2022-12-24T04:13:36.504Z,40.00
2022-12-24T04:16:07.338Z,40.20
2022-12-24T04:18:36.918Z,40.80
2022-12-24T04:21:07.748Z,40.50
2022-12-24T04:23:37.770Z,40.20
2022-12-24T04:26:07.989Z,40.40
2022-12-24T04:28:36.782Z,40.50
2022-12-24T04:31:07.418Z,40.50
2022-12-24T04:33:36.023Z,40.60
2022-12-24T04:36:07.540Z,40.60
2022-12-24T04:38:35.783Z,40.80
2022-12-24T04:41:06.978Z,40.50
2022-12-24T04:43:35.610Z,40.60
2022-12-24T04:46:07.746Z,40.50
2022-12-24T04:48:36.825Z,40.50
2022-12-24T04:51:08.399Z,40.20
2022-12-24T04:53:37.555Z,40.30
2022-12-24T04:56:09.007Z,39.70
2022-12-24T04:58:37.015Z,40.20
2022-12-24T05:01:06.093Z,39.60
2022-12-24T05:03:34.439Z,39.90
2022-12-24T05:06:03.746Z,39.90
2022-12-24T05:08:33.696Z,39.80
2022-12-24T05:11:03.240Z,39.90
2022-12-24T05:13:40.665Z,39.60
2022-12-24T05:16:11.353Z,39.80
2022-12-24T05:18:40.064Z,39.60
2022-12-24T05:21:10.696Z,38.90
2022-12-24T05:23:57.754Z,39.20
2022-12-24T05:26:30.812Z,39.40
2022-12-24T05:29:02.250Z,39.10
2022-12-24T05:31:33.313Z,38.80
2022-12-24T05:34:01.734Z,39.00
2022-12-24T05:36:30.163Z,39.30
2022-12-24T05:38:59.853Z,39.40
2022-12-24T05:41:28.187Z,39.20
2022-12-24T05:43:56.576Z,38.80
2022-12-24T05:46:26.063Z,38.70
2022-12-24T05:48:55.261Z,39.00
2022-12-24T05:51:24.302Z,38.70
2022-12-24T05:53:52.908Z,39.00
2022-12-24T05:56:25.150Z,39.00
2022-12-24T05:58:55.444Z,38.80
2022-12-24T06:01:24.712Z,38.60
2022-12-24T06:03:53.496Z,39.00
2022-12-24T06:06:24.900Z,39.20
2022-12-24T06:08:54.970Z,38.80
2022-12-24T06:11:27.344Z,38.90
2022-12-24T06:13:55.975Z,39.10
2022-12-24T06:16:26.293Z,39.00
2022-12-24T06:18:55.033Z,38.90
2022-12-24T06:21:23.194Z,39.10
2022-12-24T06:23:51.392Z,39.30
2022-12-24T06:26:21.952Z,38.70
2022-12-24T06:28:51.930Z,39.30
2022-12-24T06:31:24.314Z,39.50
2022-12-24T06:33:53.282Z,39.00
2022-12-24T06:36:24.705Z,38.90
2022-12-24T06:38:55.603Z,39.30
2022-12-24T06:41:24.465Z,39.20
2022-12-24T06:43:54.512Z,39.30
2022-12-24T06:46:23.249Z,39.70
2022-12-24T06:48:51.726Z,39.40
2022-12-24T06:51:20.558Z,39.60
2022-12-24T06:53:50.486Z,39.40
2022-12-24T06:56:20.119Z,39.90
2022-12-24T06:58:48.233Z,39.70
2022-12-24T07:01:20.323Z,39.50
2022-12-24T07:03:48.978Z,39.90
2022-12-24T07:06:20.652Z,39.80
2022-12-24T07:08:48.817Z,39.60
2022-12-24T07:11:17.688Z,39.70
2022-12-24T07:13:45.796Z,39.90
2022-12-24T07:16:13.951Z,39.90
2022-12-24T07:18:43.399Z,40.10
2022-12-24T07:21:11.637Z,39.50
2022-12-24T07:23:39.678Z,39.90
2022-12-24T07:26:08.564Z,39.70
2022-12-24T07:28:36.583Z,39.90
2022-12-24T07:31:04.835Z,39.70
2022-12-24T07:33:33.186Z,39.90
2022-12-24T07:36:05.711Z,39.50
2022-12-24T07:38:35.044Z,40.10
2022-12-24T07:41:03.192Z,39.80
2022-12-24T07:43:34.010Z,39.60
2022-12-24T07:46:02.219Z,40.30
2022-12-24T07:48:31.870Z,40.50
2022-12-24T07:51:00.642Z,40.70
2022-12-24T07:53:31.071Z,41.30
2022-12-24T07:55:59.265Z,41.00
2022-12-24T07:58:27.631Z,41.20
2022-12-24T08:01:00.116Z,41.20
2022-12-24T08:03:28.821Z,41.10
2022-12-24T08:05:58.379Z,41.90
2022-12-24T08:08:26.896Z,41.70
2022-12-24T08:11:02.099Z,41.70
2022-12-24T08:13:30.251Z,41.60
2022-12-24T08:15:58.577Z,41.50
2022-12-24T08:18:27.394Z,41.20
2022-12-24T08:20:55.434Z,41.70
2022-12-24T08:23:23.529Z,41.60
2022-12-24T08:25:51.658Z,41.60
2022-12-24T08:28:21.782Z,41.20
2022-12-24T08:30:51.026Z,41.40
2022-12-24T08:33:19.422Z,40.80
2022-12-24T08:35:51.737Z,40.90
2022-12-24T08:38:20.348Z,40.50
2022-12-24T08:40:50.169Z,40.40
2022-12-24T08:43:20.674Z,40.10
2022-12-24T08:45:50.123Z,40.00
2022-12-24T08:48:24.366Z,40.00
2022-12-24T08:50:52.568Z,39.50
2022-12-24T08:53:20.598Z,39.90
2022-12-24T08:55:53.844Z,40.00
2022-12-24T08:58:25.460Z,40.20
2022-12-24T09:00:53.496Z,39.80
2022-12-24T09:03:27.435Z,39.40
2022-12-24T09:05:56.247Z,39.90
2022-12-24T09:08:24.329Z,39.80
2022-12-24T09:10:52.287Z,40.10
2022-12-24T09:13:20.318Z,39.60
2022-12-24T09:15:55.416Z,39.30
2022-12-24T09:18:24.948Z,39.60
2022-12-24T09:20:57.288Z,40.20
2022-12-24T09:23:25.566Z,39.90
2022-12-24T09:25:53.593Z,39.80
2022-12-24T09:28:21.813Z,40.10
2022-12-24T09:30:59.524Z,39.70
2022-12-24T09:33:28.381Z,40.20
2022-12-24T09:35:56.578Z,40.00
2022-12-24T09:38:25.181Z,39.50
2022-12-24T09:40:54.643Z,39.80
2022-12-24T09:43:25.274Z,39.90
2022-12-24T09:46:08.208Z,39.80
2022-12-24T09:48:41.061Z,39.70
2022-12-24T09:51:11.613Z,39.20
2022-12-24T09:53:45.158Z,39.70
2022-12-24T09:56:17.600Z,39.60
2022-12-24T09:58:49.719Z,39.50
2022-12-24T10:01:19.860Z,39.40
2022-12-24T10:03:48.734Z,39.50
2022-12-24T10:06:25.130Z,39.00
2022-12-24T10:09:13.413Z,39.40
2022-12-24T10:11:51.475Z,39.10
2022-12-24T10:14:40.228Z,39.50
2022-12-24T10:17:32.115Z,39.20
2022-12-24T10:20:19.229Z,38.80
2022-12-24T10:22:59.884Z,39.60
2022-12-24T10:25:33.711Z,39.50
2022-12-24T10:28:04.476Z,39.20
2022-12-24T10:30:32.532Z,39.50
2022-12-24T10:33:02.093Z,39.00
2022-12-24T10:35:37.482Z,38.40
2022-12-24T10:38:05.503Z,39.10
2022-12-24T10:40:39.351Z,38.80
2022-12-24T10:43:16.518Z,39.30
2022-12-24T10:45:50.350Z,39.20
2022-12-24T10:48:26.780Z,39.40
2022-12-24T10:51:01.810Z,39.30
2022-12-24T10:53:39.448Z,39.30
2022-12-24T10:56:10.621Z,38.90
2022-12-24T10:58:44.484Z,39.20
2022-12-24T11:01:12.864Z,39.00
2022-12-24T11:03:42.487Z,39.00
2022-12-24T11:06:13.153Z,38.30
2022-12-24T11:08:44.266Z,38.80
2022-12-24T11:11:16.294Z,38.90
2022-12-24T11:13:47.472Z,38.50
2022-12-24T11:16:29.661Z,39.00
2022-12-24T11:19:03.077Z,39.00
2022-12-24T11:21:33.852Z,38.90
2022-12-24T11:24:09.567Z,38.70
2022-12-24T11:26:37.647Z,38.70
2022-12-24T11:29:14.598Z,38.70
2022-12-24T11:31:43.600Z,38.80
2022-12-24T11:34:29.680Z,38.60
2022-12-24T11:37:14.887Z,38.80
2022-12-24T11:39:48.742Z,38.90
2022-12-24T11:42:31.851Z,38.80
2022-12-24T11:45:02.832Z,38.30
2022-12-24T11:47:36.804Z,38.10
2022-12-24T11:50:28.390Z,38.80
2022-12-24T11:53:05.963Z,38.00
2022-12-24T11:55:45.090Z,38.20
2022-12-24T11:58:22.920Z,38.00
2022-12-24T12:00:53.182Z,37.60
2022-12-24T12:03:37.343Z,37.10
2022-12-24T12:06:24.471Z,37.70
2022-12-24T12:08:57.483Z,37.40
2022-12-24T12:11:27.562Z,38.00
2022-12-24T12:14:00.015Z,37.20
2022-12-24T12:16:53.228Z,37.80
2022-12-24T12:19:24.183Z,37.70
2022-12-24T12:21:54.006Z,37.40
2022-12-24T12:24:32.091Z,37.90
2022-12-24T12:27:12.389Z,37.60
2022-12-24T12:29:46.734Z,37.40
2022-12-24T12:32:26.847Z,37.60
2022-12-24T12:35:05.560Z,37.40
2022-12-24T12:37:40.607Z,37.40
2022-12-24T12:40:15.908Z,37.40
2022-12-24T12:42:54.823Z,37.20
2022-12-24T12:45:38.990Z,37.60
2022-12-24T12:48:41.975Z,37.40
2022-12-24T12:51:16.658Z,37.40
2022-12-24T12:54:13.970Z,37.20
2022-12-24T12:56:47.939Z,37.70
2022-12-24T12:59:22.593Z,37.50
2022-12-24T13:02:01.940Z,37.20
2022-12-24T13:05:03.156Z,37.10
2022-12-24T13:08:13.006Z,37.00
2022-12-24T13:11:11.134Z,36.60
2022-12-24T13:14:21.053Z,36.60
2022-12-24T13:17:55.254Z,36.30
2022-12-24T13:20:29.539Z,36.30
2022-12-24T13:23:00.760Z,35.60
2022-12-24T13:25:36.435Z,36.50
2022-12-24T13:28:33.657Z,36.20
2022-12-24T13:31:30.664Z,36.20
2022-12-24T13:34:03.873Z,36.10
2022-12-24T13:37:14.308Z,36.20
2022-12-24T13:40:15.894Z,36.40
2022-12-24T13:43:11.514Z,36.40
2022-12-24T13:45:46.758Z,36.40
2022-12-24T13:48:30.402Z,36.30
2022-12-24T13:51:01.988Z,36.30
2022-12-24T13:53:33.995Z,35.60
2022-12-24T13:56:09.785Z,36.40
2022-12-24T13:58:42.726Z,36.60
2022-12-24T14:01:16.669Z,36.60
2022-12-24T14:03:48.903Z,36.40
2022-12-24T14:06:25.131Z,36.40
2022-12-24T14:08:57.347Z,36.20
2022-12-24T14:11:31.329Z,36.50
2022-12-24T14:14:28.648Z,36.00
2022-12-24T14:17:00.562Z,36.30
2022-12-24T14:19:37.627Z,36.20
2022-12-24T14:22:28.984Z,36.20
2022-12-24T14:24:59.769Z,36.20
2022-12-24T14:27:35.082Z,36.30
2022-12-24T14:30:08.776Z,35.80
2022-12-24T14:32:41.004Z,35.60
2022-12-24T14:35:16.460Z,35.90
2022-12-24T14:37:48.128Z,36.50
2022-12-24T14:40:19.204Z,36.20
2022-12-24T14:42:56.362Z,36.20
2022-12-24T14:45:33.373Z,36.40
2022-12-24T14:48:17.547Z,36.30
2022-12-24T14:51:07.398Z,35.20
2022-12-24T14:53:55.818Z,36.00
2022-12-24T14:56:25.386Z,36.30
2022-12-24T14:58:53.413Z,36.10
2022-12-24T15:01:25.214Z,36.30
2022-12-24T15:04:06.990Z,36.10
2022-12-24T15:06:38.004Z,36.20
2022-12-24T15:09:07.247Z,36.40
2022-12-24T15:11:35.392Z,36.60
2022-12-24T15:14:03.532Z,35.90
2022-12-24T15:16:35.404Z,36.30
2022-12-24T15:19:07.876Z,36.30
2022-12-24T15:21:41.219Z,36.70
2022-12-24T15:24:25.773Z,36.50
2022-12-24T15:26:54.049Z,36.30
2022-12-24T15:29:26.207Z,36.50
2022-12-24T15:31:55.505Z,36.60
2022-12-24T15:34:37.219Z,36.40
2022-12-24T15:37:08.781Z,36.40
2022-12-24T15:39:37.314Z,36.20
2022-12-24T15:42:14.661Z,36.40
2022-12-24T15:44:49.367Z,36.40
2022-12-24T15:47:20.598Z,36.40
2022-12-24T15:49:52.782Z,36.00
2022-12-24T15:52:24.931Z,36.70
2022-12-24T15:54:58.106Z,36.80
2022-12-24T15:57:31.706Z,36.60
2022-12-24T16:00:01.824Z,36.70
2022-12-24T16:02:39.720Z,36.60
2022-12-24T16:05:31.764Z,37.00
2022-12-24T16:08:08.632Z,36.10
2022-12-24T16:10:40.348Z,36.70
2022-12-24T16:13:16.181Z,36.90
2022-12-24T16:15:51.904Z,36.90
2022-12-24T16:18:25.946Z,36.80
2022-12-24T16:20:57.374Z,36.60
2022-12-24T16:23:39.157Z,37.20
2022-12-24T16:26:07.253Z,36.50
2022-12-24T16:28:35.256Z,37.10
2022-12-24T16:31:03.793Z,37.00
2022-12-24T16:33:31.941Z,37.10
2022-12-24T16:36:01.387Z,36.60
2022-12-24T16:38:49.461Z,37.00
2022-12-24T16:41:17.497Z,37.30
2022-12-24T16:43:50.819Z,37.20
2022-12-24T16:46:19.493Z,37.70
2022-12-24T16:48:49.566Z,37.40
2022-12-24T16:51:19.032Z,37.30
2022-12-24T16:53:47.043Z,37.20
2022-12-24T16:56:17.119Z,37.00
2022-12-24T16:58:45.149Z,37.80
2022-12-24T17:01:13.284Z,36.90
2022-12-24T17:03:41.749Z,37.70
2022-12-24T17:06:10.116Z,36.80
2022-12-24T17:08:39.493Z,37.70
2022-12-24T17:11:07.500Z,37.30
2022-12-24T17:13:35.482Z,37.50
2022-12-24T17:16:03.838Z,37.40
2022-12-24T17:18:32.071Z,37.20
2022-12-24T17:21:01.204Z,37.10
2022-12-24T17:23:29.515Z,37.70
2022-12-24T17:25:58.932Z,37.80
2022-12-24T17:28:26.942Z,37.20
2022-12-24T17:30:55.011Z,37.30
2022-12-24T17:33:23.128Z,37.20
2022-12-24T17:35:52.125Z,37.50
2022-12-24T17:38:20.175Z,37.40
2022-12-24T17:40:48.176Z,37.60
2022-12-24T17:43:17.816Z,37.40
2022-12-24T17:45:45.839Z,37.50
2022-12-24T17:48:13.885Z,37.20
2022-12-24T17:50:41.950Z,37.70
2022-12-24T17:53:10.062Z,37.30
2022-12-24T17:55:41.781Z,37.80
2022-12-24T17:58:10.085Z,38.10
2022-12-24T18:00:39.734Z,38.10
2022-12-24T18:03:08.097Z,38.10
2022-12-24T18:05:36.760Z,37.70
2022-12-24T18:08:05.411Z,38.40
2022-12-24T18:10:33.511Z,38.00
2022-12-24T18:13:01.781Z,38.30
2022-12-24T18:15:29.903Z,37.70
2022-12-24T18:17:59.332Z,38.10
2022-12-24T18:20:27.604Z,37.70
2022-12-24T18:22:56.164Z,37.90
2022-12-24T18:25:24.638Z,38.10
2022-12-24T18:27:52.849Z,37.70
2022-12-24T18:30:25.991Z,37.80
2022-12-24T18:32:56.126Z,37.70
2022-12-24T18:35:25.400Z,37.60
2022-12-24T18:37:53.645Z,38.10
2022-12-24T18:40:21.728Z,37.60
2022-12-24T18:42:50.055Z,37.50
2022-12-24T18:45:18.312Z,38.10
2022-12-24T18:47:46.303Z,37.40
2022-12-24T18:50:14.382Z,37.90
2022-12-24T18:52:43.723Z,37.60
2022-12-24T18:55:11.978Z,38.20
2022-12-24T18:57:40.000Z,37.80
2022-12-24T19:00:09.920Z,37.70
2022-12-24T19:02:38.109Z,38.30
2022-12-24T19:05:07.428Z,38.30
2022-12-24T19:07:35.465Z,38.20
2022-12-24T19:10:05.793Z,38.20
2022-12-24T19:12:33.902Z,38.40
2022-12-24T19:15:02.327Z,38.40
2022-12-24T19:17:30.360Z,37.80
2022-12-24T19:19:58.385Z,37.70
2022-12-24T19:22:27.625Z,37.60
2022-12-24T19:24:55.687Z,38.20
2022-12-24T19:27:25.062Z,39.10
2022-12-24T19:29:53.079Z,38.30
2022-12-24T19:32:21.199Z,38.00
2022-12-24T19:34:49.300Z,37.90
2022-12-24T19:37:17.341Z,38.10
2022-12-24T19:39:45.351Z,37.80
2022-12-24T19:42:13.399Z,38.20
2022-12-24T19:44:42.803Z,38.20
2022-12-24T19:47:11.151Z,38.10
2022-12-24T19:49:39.113Z,38.20
2022-12-24T19:52:07.134Z,37.90
2022-12-24T19:54:35.261Z,38.10
2022-12-24T19:57:03.338Z,38.30
2022-12-24T19:59:31.684Z,37.50
2022-12-24T20:02:01.306Z,37.60
2022-12-24T20:04:29.396Z,38.30
2022-12-24T20:07:00.611Z,38.00
2022-12-24T20:09:31.415Z,38.30
2022-12-24T20:11:59.528Z,37.70
2022-12-24T20:14:27.660Z,37.90
2022-12-24T20:16:55.899Z,38.20
2022-12-24T20:19:25.276Z,38.30
2022-12-24T20:21:53.306Z,37.60
2022-12-24T20:24:21.313Z,38.00
2022-12-24T20:26:49.357Z,38.50
2022-12-24T20:29:17.490Z,37.90
2022-12-24T20:31:45.612Z,38.10
2022-12-24T20:34:13.749Z,37.70
2022-12-24T20:36:43.942Z,39.10
2022-12-24T20:39:12.890Z,37.90
2022-12-24T20:41:40.940Z,39.00
2022-12-24T20:44:08.931Z,38.60
2022-12-24T20:46:37.006Z,38.50
2022-12-24T20:49:05.206Z,38.20
2022-12-24T20:51:33.321Z,38.20
2022-12-24T20:54:02.784Z,38.30
2022-12-24T20:56:31.663Z,38.30
2022-12-24T20:59:01.294Z,38.00
2022-12-24T21:01:30.189Z,38.60
2022-12-24T21:04:04.149Z,38.40
2022-12-24T21:06:32.737Z,38.20
2022-12-24T21:09:02.919Z,38.30
2022-12-24T21:11:48.810Z,38.50
2022-12-24T21:14:19.076Z,38.20
2022-12-24T21:16:47.716Z,38.50
2022-12-24T21:19:19.400Z,38.40
2022-12-24T21:21:48.251Z,38.50
2022-12-24T21:24:18.197Z,38.20
2022-12-24T21:26:46.580Z,38.50
2022-12-24T21:29:14.633Z,38.40
2022-12-24T21:31:43.077Z,38.50
2022-12-24T21:34:11.107Z,38.30
2022-12-24T21:36:39.080Z,38.00
2022-12-24T21:39:07.025Z,38.00
2022-12-24T21:41:36.380Z,38.60
2022-12-24T21:44:04.426Z,38.60
2022-12-24T21:46:32.618Z,38.00
2022-12-24T21:49:18.215Z,38.60
2022-12-24T21:51:48.658Z,38.40
2022-12-24T21:54:30.404Z,38.30
2022-12-24T21:57:20.320Z,38.50
2022-12-24T21:59:51.557Z,37.90
2022-12-24T22:02:22.595Z,38.00
2022-12-24T22:04:50.832Z,38.70
2022-12-24T22:07:41.441Z,38.30
2022-12-24T22:10:29.101Z,38.60
2022-12-24T22:13:00.430Z,38.10
2022-12-24T22:15:28.651Z,38.30
2022-12-24T22:17:56.701Z,38.40
2022-12-24T22:20:24.898Z,38.70
2022-12-24T22:22:52.890Z,38.60
2022-12-24T22:25:21.143Z,38.20
2022-12-24T22:27:49.387Z,38.70
2022-12-24T22:30:19.005Z,38.70
2022-12-24T22:32:47.054Z,38.70
2022-12-24T22:35:15.116Z,38.50
2022-12-24T22:37:43.166Z,38.40
2022-12-24T22:40:12.955Z,38.50
2022-12-24T22:42:41.749Z,38.40
2022-12-24T22:45:16.926Z,38.50
2022-12-24T22:47:49.547Z,38.50
2022-12-24T22:50:17.762Z,38.90
2022-12-24T22:52:45.967Z,39.00
2022-12-24T22:55:14.112Z,38.40
2022-12-24T22:57:42.200Z,38.40
2022-12-24T23:00:16.755Z,39.00
2022-12-24T23:02:44.881Z,39.00
2022-12-24T23:05:16.221Z,38.80
2022-12-24T23:07:44.236Z,39.20
2022-12-24T23:10:12.479Z,38.90
2022-12-24T23:12:58.249Z,39.00
2022-12-24T23:15:26.291Z,38.90
2022-12-24T23:17:54.291Z,39.40
2022-12-24T23:20:23.632Z,38.50
2022-12-24T23:22:51.612Z,38.70
2022-12-24T23:25:19.687Z,39.10
2022-12-24T23:27:47.878Z,40.00
2022-12-24T23:30:16.747Z,39.00
2022-12-24T23:32:44.865Z,39.50
2022-12-24T23:35:12.938Z,39.20
2022-12-24T23:37:42.327Z,38.80
2022-12-24T23:40:11.877Z,39.50
2022-12-24T23:42:39.860Z,39.10
2022-12-24T23:45:09.354Z,39.40
2022-12-24T23:47:37.315Z,39.60
2022-12-24T23:50:06.857Z,38.80
2022-12-24T23:52:34.987Z,39.40
2022-12-24T23:55:04.906Z,39.50
2022-12-24T23:57:32.904Z,39.40
